Terminal Aerodrome Forecast
Issued by NWS Sterling, VA

Current Version | Previous Version | Text Only | Print | Product List | Glossary On
Versions: 1 2 3 4 5 6 7 8 9 10 11 12 13 14 15 16 17
000
FTUS41 KLWX 042321
TAFCHO
TAF
KCHO 042321Z 0500/0524 19009KT P6SM FEW250
     FM050200 21004KT P6SM FEW250
     FM050700 00000KT P6SM SCT250
     FM051700 VRB03KT P6SM BKN110=

USA.gov is the U.S. government's official web portal to all federal, state and local government web resources and services.